createdAt,value
2023-02-13T00:03:29.220Z,11.10
2023-02-13T00:08:34.070Z,9.48
2023-02-13T00:13:37.445Z,10.93
2023-02-13T00:18:41.001Z,10.23
2023-02-13T00:23:46.276Z,10.93
2023-02-13T00:28:49.897Z,11.38
2023-02-13T00:33:53.526Z,11.18
2023-02-13T00:38:58.614Z,9.85
2023-02-13T00:44:01.977Z,9.88
2023-02-13T00:49:05.991Z,9.43
2023-02-13T00:54:11.001Z,9.40
2023-02-13T00:59:14.406Z,9.52
2023-02-13T01:04:17.773Z,8.98
2023-02-13T01:09:22.529Z,9.95
2023-02-13T01:14:25.927Z,8.90
2023-02-13T01:19:29.425Z,9.10
2023-02-13T01:24:34.356Z,9.45
2023-02-13T01:29:37.760Z,8.73
2023-02-13T01:34:41.448Z,8.45
2023-02-13T01:39:46.201Z,11.57
2023-02-13T01:44:53.613Z,9.55
2023-02-13T01:50:09.907Z,9.15
2023-02-13T01:55:16.113Z,7.40
2023-02-13T02:00:20.245Z,7.72
2023-02-13T02:05:27.531Z,7.10
2023-02-13T02:10:33.559Z,7.25
2023-02-13T02:15:37.005Z,7.10
2023-02-13T02:21:09.340Z,6.68
2023-02-13T02:26:49.057Z,7.80
2023-02-13T02:32:22.458Z,7.05
2023-02-13T02:37:42.447Z,6.50
2023-02-13T02:43:01.758Z,7.22
2023-02-13T02:48:30.048Z,6.75
2023-02-13T02:53:39.907Z,6.00
2023-02-13T02:59:06.037Z,5.60
2023-02-13T03:04:36.144Z,5.03
2023-02-13T03:10:01.285Z,6.47
2023-02-13T03:15:05.065Z,5.68
2023-02-13T03:20:41.364Z,6.00
2023-02-13T03:26:03.296Z,5.32
2023-02-13T03:31:16.580Z,5.45
2023-02-13T03:36:49.360Z,5.20
2023-02-13T03:41:58.357Z,5.88
2023-02-13T03:47:04.652Z,5.28
2023-02-13T03:52:12.709Z,5.88
2023-02-13T03:57:38.634Z,8.77
2023-02-13T04:02:51.104Z,6.07
2023-02-13T04:07:56.644Z,6.05
2023-02-13T04:13:06.137Z,5.97
2023-02-13T04:18:14.236Z,7.35
2023-02-13T04:23:19.042Z,7.30
2023-02-13T04:28:22.705Z,7.38
2023-02-13T04:33:26.224Z,7.50
2023-02-13T04:38:30.992Z,7.20
2023-02-13T04:43:34.418Z,6.93
2023-02-13T04:48:38.971Z,7.22
2023-02-13T04:53:43.790Z,7.28
2023-02-13T04:58:47.944Z,7.72
2023-02-13T05:03:51.475Z,7.18
2023-02-13T05:08:56.166Z,7.63
2023-02-13T05:13:59.820Z,7.05
2023-02-13T05:19:03.253Z,7.57
2023-02-13T05:24:08.261Z,7.57
2023-02-13T05:29:22.535Z,9.93
2023-02-13T05:34:27.615Z,7.20
2023-02-13T05:39:32.460Z,6.20
2023-02-13T05:44:35.842Z,5.65
2023-02-13T05:49:39.269Z,6.03
2023-02-13T05:54:44.252Z,5.18
2023-02-13T05:59:47.807Z,5.95
2023-02-13T06:04:51.239Z,5.68
2023-02-13T06:09:58.390Z,5.53
2023-02-13T06:15:01.788Z,5.13
2023-02-13T06:20:05.866Z,6.63
2023-02-13T06:25:11.052Z,6.80
2023-02-13T06:30:15.754Z,5.68
2023-02-13T06:35:19.337Z,5.70
2023-02-13T06:40:24.135Z,5.72
2023-02-13T06:45:27.574Z,5.40
2023-02-13T06:50:31.183Z,5.75
2023-02-13T06:55:37.008Z,5.78
2023-02-13T07:00:40.897Z,5.35
2023-02-13T07:05:45.294Z,5.75
2023-02-13T07:10:50.029Z,5.80
2023-02-13T07:15:53.646Z,6.32
2023-02-13T07:20:58.913Z,5.65
2023-02-13T07:26:04.032Z,6.53
2023-02-13T07:31:07.884Z,7.88
2023-02-13T07:36:11.696Z,6.78
2023-02-13T07:41:16.443Z,6.78
2023-02-13T07:46:20.012Z,6.97
2023-02-13T07:51:25.425Z,7.63
2023-02-13T07:56:30.208Z,7.47
2023-02-13T08:01:33.873Z,7.22
2023-02-13T08:06:39.714Z,8.80
2023-02-13T08:11:56.830Z,8.75
2023-02-13T08:17:01.219Z,7.38
2023-02-13T08:22:04.759Z,7.35
2023-02-13T08:27:13.506Z,8.48
2023-02-13T08:32:16.990Z,10.23
2023-02-13T08:37:20.547Z,13.30
2023-02-13T08:42:25.320Z,10.40
2023-02-13T08:47:28.749Z,12.75
2023-02-13T08:52:32.438Z,14.48
2023-02-13T08:57:37.194Z,14.32
2023-02-13T09:02:40.635Z,15.80
2023-02-13T09:07:43.995Z,14.85
2023-02-13T09:12:54.521Z,14.55
2023-02-13T09:17:58.567Z,14.45
2023-02-13T09:23:01.955Z,13.82
2023-02-13T09:28:06.780Z,14.95
2023-02-13T09:33:12.281Z,13.63
2023-02-13T09:38:15.853Z,6.63
2023-02-13T09:43:29.107Z,3.92
2023-02-13T09:48:36.655Z,2.33
2023-02-13T09:53:43.558Z,2.40
2023-02-13T09:58:50.744Z,3.45
2023-02-13T10:04:17.642Z,2.28
2023-02-13T10:09:30.866Z,2.50
2023-02-13T10:14:44.953Z,3.25
2023-02-13T10:19:51.514Z,3.47
2023-02-13T10:24:58.533Z,3.05
2023-02-13T10:30:09.484Z,2.50
2023-02-13T10:35:24.680Z,2.72
2023-02-13T10:40:35.161Z,2.13
2023-02-13T10:46:07.576Z,2.88
2023-02-13T10:51:20.216Z,2.65
2023-02-13T10:56:30.227Z,2.80
2023-02-13T11:01:41.178Z,3.08
2023-02-13T11:06:52.414Z,2.63
2023-02-13T11:11:56.033Z,3.20
2023-02-13T11:17:03.817Z,3.05
2023-02-13T11:22:12.347Z,2.80
2023-02-13T11:27:16.103Z,3.72
2023-02-13T11:32:23.931Z,2.85
2023-02-13T11:37:29.314Z,2.97
2023-02-13T11:42:36.151Z,3.75
2023-02-13T11:47:43.779Z,3.30
2023-02-13T11:52:55.976Z,3.75
2023-02-13T11:58:01.857Z,3.75
2023-02-13T12:03:27.188Z,3.63
2023-02-13T12:08:31.602Z,4.18
2023-02-13T12:13:38.986Z,4.07
2023-02-13T12:18:47.531Z,3.70
2023-02-13T12:23:58.703Z,3.05
2023-02-13T12:29:20.726Z,3.58
2023-02-13T12:34:56.710Z,3.33
2023-02-13T12:40:24.210Z,4.05
2023-02-13T12:45:38.404Z,3.90
2023-02-13T12:50:59.102Z,4.70
2023-02-13T12:56:24.406Z,4.35
2023-02-13T13:01:46.318Z,3.53
2023-02-13T13:07:03.044Z,3.53
2023-02-13T13:12:22.440Z,4.03
2023-02-13T13:17:43.446Z,3.03
2023-02-13T13:22:54.972Z,3.20
2023-02-13T13:28:03.529Z,2.80
2023-02-13T13:33:12.444Z,3.10
2023-02-13T13:38:22.177Z,2.92
2023-02-13T13:43:34.216Z,2.45
2023-02-13T13:49:08.567Z,2.70
2023-02-13T13:54:35.763Z,2.30
2023-02-13T14:00:25.639Z,3.10
2023-02-13T14:05:31.404Z,3.28
2023-02-13T14:11:27.267Z,4.07
2023-02-13T14:16:43.220Z,3.10
2023-02-13T14:21:46.641Z,2.33
2023-02-13T14:27:05.128Z,3.00
2023-02-13T14:32:23.428Z,3.28
2023-02-13T14:37:36.707Z,3.10
2023-02-13T14:42:44.733Z,3.20
2023-02-13T14:47:53.432Z,3.17
2023-02-13T14:53:00.364Z,2.90
2023-02-13T14:58:10.048Z,3.40
2023-02-13T15:03:26.063Z,3.42
2023-02-13T15:08:33.277Z,3.83
2023-02-13T15:13:38.925Z,5.28
2023-02-13T15:18:47.135Z,7.20
2023-02-13T15:23:53.318Z,6.63
2023-02-13T15:29:02.948Z,6.47
2023-02-13T15:34:22.190Z,6.30
2023-02-13T15:39:28.511Z,6.30
2023-02-13T15:44:36.546Z,6.38
2023-02-13T15:49:44.152Z,8.30
2023-02-13T15:54:52.289Z,7.38
2023-02-13T15:59:59.727Z,9.07
2023-02-13T16:05:03.772Z,11.05
2023-02-13T16:10:16.662Z,9.95
2023-02-13T16:15:23.379Z,10.60
2023-02-13T16:20:28.908Z,11.02
2023-02-13T16:25:35.708Z,11.10
2023-02-13T16:30:42.240Z,10.43
2023-02-13T16:35:48.941Z,11.20
2023-02-13T16:40:52.561Z,11.68
2023-02-13T16:46:25.771Z,11.57
2023-02-13T16:51:37.339Z,11.95
2023-02-13T16:56:43.073Z,12.68
2023-02-13T17:01:47.784Z,13.50
2023-02-13T17:06:55.844Z,14.07
2023-02-13T17:11:59.185Z,12.23
2023-02-13T17:17:03.932Z,13.20
2023-02-13T17:22:08.956Z,11.95
2023-02-13T17:27:12.889Z,11.18
2023-02-13T17:32:19.122Z,12.57
2023-02-13T17:37:24.813Z,11.48
2023-02-13T17:42:30.736Z,11.82
2023-02-13T17:47:36.047Z,12.25
2023-02-13T17:52:40.574Z,12.32
2023-02-13T17:57:44.270Z,10.13
2023-02-13T18:02:49.890Z,11.98
2023-02-13T18:07:53.786Z,12.02
2023-02-13T18:13:04.121Z,11.82
2023-02-13T18:18:09.317Z,11.30
2023-02-13T18:23:14.013Z,10.85
2023-02-13T18:28:17.479Z,10.00
2023-02-13T18:33:22.180Z,10.43
2023-02-13T18:38:25.583Z,9.38
2023-02-13T18:43:29.130Z,8.70
2023-02-13T18:48:33.978Z,8.32
2023-02-13T18:53:37.417Z,8.85
2023-02-13T18:58:40.872Z,8.98
2023-02-13T19:03:46.053Z,9.20
2023-02-13T19:08:50.028Z,8.35
2023-02-13T19:13:55.607Z,8.65
2023-02-13T19:19:04.608Z,9.02
2023-02-13T19:24:10.856Z,9.20
2023-02-13T19:29:14.457Z,9.90
2023-02-13T19:34:19.187Z,9.50
2023-02-13T19:39:22.774Z,8.73
2023-02-13T19:44:26.415Z,9.38
2023-02-13T19:49:31.203Z,9.25
2023-02-13T19:54:35.121Z,10.60
2023-02-13T19:59:38.806Z,10.68
2023-02-13T20:04:43.754Z,9.27
2023-02-13T20:09:47.135Z,9.60
2023-02-13T20:14:50.519Z,9.15
2023-02-13T20:19:55.918Z,10.20
2023-02-13T20:24:59.739Z,11.10
2023-02-13T20:30:06.814Z,10.60
2023-02-13T20:35:12.478Z,9.55
2023-02-13T20:40:15.928Z,11.10
2023-02-13T20:45:19.357Z,11.55
2023-02-13T20:50:24.046Z,11.35
2023-02-13T20:55:27.451Z,11.20
2023-02-13T21:00:30.890Z,11.10
2023-02-13T21:05:35.662Z,10.93
2023-02-13T21:10:39.372Z,11.13
2023-02-13T21:15:45.555Z,12.50
2023-02-13T21:20:50.336Z,13.48
2023-02-13T21:25:54.282Z,11.80
2023-02-13T21:30:58.006Z,12.40
2023-02-13T21:36:05.002Z,11.55
2023-02-13T21:41:09.455Z,12.25
2023-02-13T21:46:14.355Z,12.63
2023-02-13T21:51:20.906Z,12.15
2023-02-13T21:56:26.494Z,12.57
2023-02-13T22:01:31.712Z,11.63
2023-02-13T22:06:40.098Z,13.40
2023-02-13T22:11:43.842Z,13.20
2023-02-13T22:16:50.473Z,11.77
2023-02-13T22:21:55.218Z,12.20
2023-02-13T22:26:58.572Z,12.27
2023-02-13T22:32:02.384Z,12.85
2023-02-13T22:37:08.404Z,12.82
2023-02-13T22:42:11.759Z,12.65
2023-02-13T22:47:15.139Z,11.60
2023-02-13T22:52:19.932Z,11.63
2023-02-13T22:57:23.317Z,12.88
2023-02-13T23:02:27.092Z,12.10
2023-02-13T23:07:31.928Z,12.18
2023-02-13T23:12:39.328Z,11.32
2023-02-13T23:18:01.204Z,12.57
2023-02-13T23:23:06.061Z,11.68
2023-02-13T23:28:09.707Z,11.55
2023-02-13T23:33:13.178Z,12.32
2023-02-13T23:38:17.995Z,12.10
2023-02-13T23:43:21.519Z,11.80
2023-02-13T23:48:25.018Z,11.32
2023-02-13T23:53:30.034Z,12.35
2023-02-13T23:58:33.420Z,11.13
